sensor_id;sensor_type;location;lat;lon;timestamp;pressure;altitude;pressure_sealevel;temperature;humidity
6942;BME280;3510;43.200;27.920;2023-01-31T00:00:00;100601.84;;;6.65;49.69
6942;BME280;3510;43.200;27.920;2023-01-31T00:02:29;100599.16;;;6.81;49.54
6942;BME280;3510;43.200;27.920;2023-01-31T00:04:56;100606.69;;;7.43;47.85
6942;BME280;3510;43.200;27.920;2023-01-31T00:07:22;100607.63;;;7.35;48.56
6942;BME280;3510;43.200;27.920;2023-01-31T00:09:49;100603.59;;;7.01;48.03
6942;BME280;3510;43.200;27.920;2023-01-31T00:12:16;100609.75;;;7.05;48.38
6942;BME280;3510;43.200;27.920;2023-01-31T00:14:43;100603.00;;;6.77;49.06
6942;BME280;3510;43.200;27.920;2023-01-31T00:17:11;100605.81;;;7.43;47.22
6942;BME280;3510;43.200;27.920;2023-01-31T00:19:51;100602.81;;;7.56;46.62
6942;BME280;3510;43.200;27.920;2023-01-31T00:22:18;100601.97;;;7.46;47.45
6942;BME280;3510;43.200;27.920;2023-01-31T00:24:44;100607.97;;;7.03;47.59
6942;BME280;3510;43.200;27.920;2023-01-31T00:27:12;100586.50;;;7.78;46.81
6942;BME280;3510;43.200;27.920;2023-01-31T00:29:39;100596.88;;;7.64;46.90
6942;BME280;3510;43.200;27.920;2023-01-31T00:32:05;100591.78;;;7.90;45.96
6942;BME280;3510;43.200;27.920;2023-01-31T00:34:34;100590.69;;;8.24;45.45
6942;BME280;3510;43.200;27.920;2023-01-31T00:37:00;100588.91;;;8.23;45.22
6942;BME280;3510;43.200;27.920;2023-01-31T00:39:27;100583.69;;;8.39;44.45
6942;BME280;3510;43.200;27.920;2023-01-31T00:41:54;100587.63;;;8.18;45.12
6942;BME280;3510;43.200;27.920;2023-01-31T00:44:20;100585.13;;;8.18;44.68
6942;BME280;3510;43.200;27.920;2023-01-31T00:46:47;100583.19;;;7.96;45.97
6942;BME280;3510;43.200;27.920;2023-01-31T00:49:14;100574.44;;;7.83;46.22
6942;BME280;3510;43.200;27.920;2023-01-31T00:51:44;100574.28;;;7.81;46.77
6942;BME280;3510;43.200;27.920;2023-01-31T00:54:11;100564.72;;;7.77;47.00
6942;BME280;3510;43.200;27.920;2023-01-31T00:56:38;100560.09;;;7.63;46.82
6942;BME280;3510;43.200;27.920;2023-01-31T00:59:04;100555.94;;;7.63;47.53
6942;BME280;3510;43.200;27.920;2023-01-31T01:01:33;100555.88;;;7.81;47.09
6942;BME280;3510;43.200;27.920;2023-01-31T01:04:00;100556.88;;;8.29;45.90
6942;BME280;3510;43.200;27.920;2023-01-31T01:06:27;100554.91;;;7.70;47.70
6942;BME280;3510;43.200;27.920;2023-01-31T01:08:56;100552.13;;;8.32;46.18
6942;BME280;3510;43.200;27.920;2023-01-31T01:11:24;100552.19;;;8.05;47.01
6942;BME280;3510;43.200;27.920;2023-01-31T01:13:51;100548.03;;;7.86;47.67
6942;BME280;3510;43.200;27.920;2023-01-31T01:16:19;100540.75;;;7.43;48.06
6942;BME280;3510;43.200;27.920;2023-01-31T01:18:47;100538.34;;;7.81;47.69
6942;BME280;3510;43.200;27.920;2023-01-31T01:21:15;100540.31;;;7.38;48.57
6942;BME280;3510;43.200;27.920;2023-01-31T01:23:42;100542.22;;;7.05;49.91
6942;BME280;3510;43.200;27.920;2023-01-31T01:26:13;100528.41;;;7.36;49.31
6942;BME280;3510;43.200;27.920;2023-01-31T01:28:40;100530.19;;;7.28;49.38
6942;BME280;3510;43.200;27.920;2023-01-31T01:31:07;100538.34;;;7.08;49.45
6942;BME280;3510;43.200;27.920;2023-01-31T01:33:35;100532.78;;;7.02;49.65
6942;BME280;3510;43.200;27.920;2023-01-31T01:36:02;100527.19;;;7.41;49.22
6942;BME280;3510;43.200;27.920;2023-01-31T01:38:29;100530.84;;;7.17;50.36
6942;BME280;3510;43.200;27.920;2023-01-31T01:40:56;100530.41;;;7.12;49.90
6942;BME280;3510;43.200;27.920;2023-01-31T01:46:27;100522.00;;;7.20;49.85
6942;BME280;3510;43.200;27.920;2023-01-31T01:48:55;100519.25;;;7.09;49.62
6942;BME280;3510;43.200;27.920;2023-01-31T01:51:23;100515.28;;;7.02;50.17
6942;BME280;3510;43.200;27.920;2023-01-31T01:53:51;100498.66;;;7.39;50.06
6942;BME280;3510;43.200;27.920;2023-01-31T01:56:22;100506.81;;;7.19;49.09
6942;BME280;3510;43.200;27.920;2023-01-31T01:58:50;100499.59;;;7.22;50.26
6942;BME280;3510;43.200;27.920;2023-01-31T02:01:19;100500.72;;;6.98;49.99
6942;BME280;3510;43.200;27.920;2023-01-31T02:03:48;100508.78;;;7.40;49.31
6942;BME280;3510;43.200;27.920;2023-01-31T02:06:16;100497.13;;;7.49;48.82
6942;BME280;3510;43.200;27.920;2023-01-31T02:08:43;100509.84;;;8.08;47.34
6942;BME280;3510;43.200;27.920;2023-01-31T02:11:12;100518.78;;;7.95;47.76
6942;BME280;3510;43.200;27.920;2023-01-31T02:13:41;100511.38;;;7.78;48.25
6942;BME280;3510;43.200;27.920;2023-01-31T02:16:08;100517.38;;;7.61;48.25
6942;BME280;3510;43.200;27.920;2023-01-31T02:18:34;100518.91;;;7.50;49.08
6942;BME280;3510;43.200;27.920;2023-01-31T02:35:00;100517.91;;;7.03;50.62
6942;BME280;3510;43.200;27.920;2023-01-31T02:37:32;100516.19;;;6.85;50.89
6942;BME280;3510;43.200;27.920;2023-01-31T02:40:05;100511.56;;;7.16;50.68
6942;BME280;3510;43.200;27.920;2023-01-31T02:42:36;100507.16;;;7.49;50.12
6942;BME280;3510;43.200;27.920;2023-01-31T02:45:08;100508.56;;;7.56;49.62
6942;BME280;3510;43.200;27.920;2023-01-31T02:47:42;100514.19;;;7.54;49.74
6942;BME280;3510;43.200;27.920;2023-01-31T02:50:16;100504.75;;;7.51;49.50
6942;BME280;3510;43.200;27.920;2023-01-31T02:52:47;100503.34;;;7.91;48.62
6942;BME280;3510;43.200;27.920;2023-01-31T02:55:16;100511.22;;;7.58;49.40
6942;BME280;3510;43.200;27.920;2023-01-31T02:58:02;100505.97;;;7.73;49.35
6942;BME280;3510;43.200;27.920;2023-01-31T03:00:31;100511.31;;;7.68;49.39
6942;BME280;3510;43.200;27.920;2023-01-31T03:02:59;100511.81;;;7.55;49.38
6942;BME280;3510;43.200;27.920;2023-01-31T03:05:28;100509.88;;;6.89;51.62
6942;BME280;3510;43.200;27.920;2023-01-31T03:07:55;100503.59;;;6.66;52.00
6942;BME280;3510;43.200;27.920;2023-01-31T03:10:31;100510.34;;;6.76;51.76
6942;BME280;3510;43.200;27.920;2023-01-31T03:13:12;100510.38;;;6.59;52.25
6942;BME280;3510;43.200;27.920;2023-01-31T03:15:46;100516.72;;;6.46;52.75
6942;BME280;3510;43.200;27.920;2023-01-31T03:18:36;100516.81;;;6.74;52.23
6942;BME280;3510;43.200;27.920;2023-01-31T03:21:06;100513.13;;;6.79;52.13
6942;BME280;3510;43.200;27.920;2023-01-31T03:23:35;100512.38;;;6.89;51.45
6942;BME280;3510;43.200;27.920;2023-01-31T03:26:04;100509.31;;;7.19;50.60
6942;BME280;3510;43.200;27.920;2023-01-31T03:28:32;100496.63;;;7.26;51.01
6942;BME280;3510;43.200;27.920;2023-01-31T03:31:04;100496.84;;;6.65;52.07
6942;BME280;3510;43.200;27.920;2023-01-31T03:33:33;100495.94;;;6.73;51.68
6942;BME280;3510;43.200;27.920;2023-01-31T03:36:02;100491.97;;;7.48;50.95
6942;BME280;3510;43.200;27.920;2023-01-31T03:38:33;100500.19;;;6.83;51.28
6942;BME280;3510;43.200;27.920;2023-01-31T03:41:01;100498.03;;;6.51;52.24
6942;BME280;3510;43.200;27.920;2023-01-31T03:43:32;100490.09;;;6.64;52.54
6942;BME280;3510;43.200;27.920;2023-01-31T03:46:04;100498.13;;;6.79;52.08
6942;BME280;3510;43.200;27.920;2023-01-31T03:48:34;100491.81;;;6.83;52.02
6942;BME280;3510;43.200;27.920;2023-01-31T03:51:03;100489.41;;;7.29;50.66
6942;BME280;3510;43.200;27.920;2023-01-31T03:53:33;100500.63;;;6.79;51.07
6942;BME280;3510;43.200;27.920;2023-01-31T03:56:02;100496.31;;;6.95;51.20
6942;BME280;3510;43.200;27.920;2023-01-31T03:58:30;100504.91;;;6.63;51.84
6942;BME280;3510;43.200;27.920;2023-01-31T04:01:00;100502.38;;;7.25;51.29
6942;BME280;3510;43.200;27.920;2023-01-31T04:03:29;100495.84;;;6.99;50.52
6942;BME280;3510;43.200;27.920;2023-01-31T04:05:57;100502.63;;;7.00;50.30
6942;BME280;3510;43.200;27.920;2023-01-31T04:08:24;100496.81;;;6.83;50.53
6942;BME280;3510;43.200;27.920;2023-01-31T04:10:52;100497.94;;;6.95;50.28
6942;BME280;3510;43.200;27.920;2023-01-31T04:13:20;100488.75;;;7.13;49.89
6942;BME280;3510;43.200;27.920;2023-01-31T04:15:48;100499.34;;;7.10;49.86
6942;BME280;3510;43.200;27.920;2023-01-31T04:18:15;100503.06;;;6.96;50.16
6942;BME280;3510;43.200;27.920;2023-01-31T04:20:42;100512.13;;;6.68;50.01
6942;BME280;3510;43.200;27.920;2023-01-31T04:23:09;100514.19;;;6.72;49.24
6942;BME280;3510;43.200;27.920;2023-01-31T04:25:36;100515.16;;;6.92;50.17
6942;BME280;3510;43.200;27.920;2023-01-31T04:28:04;100514.72;;;6.78;49.16
6942;BME280;3510;43.200;27.920;2023-01-31T04:30:31;100517.91;;;7.12;49.04
6942;BME280;3510;43.200;27.920;2023-01-31T04:32:58;100519.38;;;7.10;49.37
6942;BME280;3510;43.200;27.920;2023-01-31T04:35:24;100521.03;;;6.92;49.54
6942;BME280;3510;43.200;27.920;2023-01-31T04:37:51;100514.38;;;7.10;49.67
6942;BME280;3510;43.200;27.920;2023-01-31T04:40:20;100517.16;;;7.13;50.12
6942;BME280;3510;43.200;27.920;2023-01-31T04:42:48;100526.50;;;6.88;50.16
6942;BME280;3510;43.200;27.920;2023-01-31T04:45:17;100531.81;;;6.74;50.79
6942;BME280;3510;43.200;27.920;2023-01-31T04:47:44;100525.88;;;6.99;50.99
6942;BME280;3510;43.200;27.920;2023-01-31T04:50:11;100535.88;;;6.99;51.94
6942;BME280;3510;43.200;27.920;2023-01-31T04:52:39;100546.72;;;7.17;51.27
6942;BME280;3510;43.200;27.920;2023-01-31T04:55:06;100553.31;;;6.72;52.71
6942;BME280;3510;43.200;27.920;2023-01-31T04:57:33;100550.03;;;6.82;52.42
6942;BME280;3510;43.200;27.920;2023-01-31T05:00:05;100554.81;;;7.15;51.69
6942;BME280;3510;43.200;27.920;2023-01-31T05:02:33;100547.25;;;7.32;51.77
6942;BME280;3510;43.200;27.920;2023-01-31T05:05:01;100544.50;;;7.12;52.70
6942;BME280;3510;43.200;27.920;2023-01-31T05:07:28;100555.75;;;6.89;52.73
6942;BME280;3510;43.200;27.920;2023-01-31T05:09:54;100546.38;;;7.23;51.53
6942;BME280;3510;43.200;27.920;2023-01-31T05:12:21;100553.44;;;6.65;53.21
6942;BME280;3510;43.200;27.920;2023-01-31T05:14:48;100550.50;;;6.86;53.34
6942;BME280;3510;43.200;27.920;2023-01-31T05:17:19;100553.88;;;6.78;53.20
6942;BME280;3510;43.200;27.920;2023-01-31T05:19:52;100548.44;;;6.73;53.89
6942;BME280;3510;43.200;27.920;2023-01-31T05:22:19;100552.66;;;6.92;53.37
6942;BME280;3510;43.200;27.920;2023-01-31T05:24:48;100550.78;;;6.63;53.91
6942;BME280;3510;43.200;27.920;2023-01-31T05:27:15;100556.97;;;7.29;52.29
6942;BME280;3510;43.200;27.920;2023-01-31T05:29:42;100555.19;;;6.74;53.38
6942;BME280;3510;43.200;27.920;2023-01-31T05:32:09;100559.94;;;6.54;54.25
6942;BME280;3510;43.200;27.920;2023-01-31T05:34:37;100561.81;;;6.74;53.16
6942;BME280;3510;43.200;27.920;2023-01-31T05:37:06;100572.13;;;6.60;53.69
6942;BME280;3510;43.200;27.920;2023-01-31T05:39:34;100565.69;;;7.15;52.08
6942;BME280;3510;43.200;27.920;2023-01-31T06:00:58;100581.53;;;6.62;52.99
6942;BME280;3510;43.200;27.920;2023-01-31T06:03:35;100578.03;;;6.60;53.53
6942;BME280;3510;43.200;27.920;2023-01-31T06:27:05;100585.50;;;7.76;51.72
6942;BME280;3510;43.200;27.920;2023-01-31T06:29:32;100592.50;;;7.61;52.30
6942;BME280;3510;43.200;27.920;2023-01-31T06:32:40;100594.97;;;7.25;52.53
6942;BME280;3510;43.200;27.920;2023-01-31T06:35:18;100592.53;;;6.99;53.49
6942;BME280;3510;43.200;27.920;2023-01-31T06:37:46;100594.16;;;6.98;53.19
6942;BME280;3510;43.200;27.920;2023-01-31T06:40:14;100599.91;;;6.97;53.84
6942;BME280;3510;43.200;27.920;2023-01-31T06:42:43;100600.91;;;6.99;53.47
6942;BME280;3510;43.200;27.920;2023-01-31T06:45:09;100600.06;;;6.38;54.95
6942;BME280;3510;43.200;27.920;2023-01-31T06:50:12;100601.38;;;6.69;55.35
6942;BME280;3510;43.200;27.920;2023-01-31T06:52:38;100608.13;;;6.96;54.27
6942;BME280;3510;43.200;27.920;2023-01-31T06:55:08;100624.72;;;7.31;53.37
6942;BME280;3510;43.200;27.920;2023-01-31T06:57:51;100617.66;;;7.18;54.41
6942;BME280;3510;43.200;27.920;2023-01-31T07:05:29;100629.41;;;7.19;54.16
6942;BME280;3510;43.200;27.920;2023-01-31T07:07:57;100620.13;;;7.26;54.12
6942;BME280;3510;43.200;27.920;2023-01-31T07:10:23;100624.00;;;7.59;53.80
6942;BME280;3510;43.200;27.920;2023-01-31T07:12:55;100632.44;;;7.51;54.24
6942;BME280;3510;43.200;27.920;2023-01-31T07:15:25;100636.81;;;6.91;55.33
6942;BME280;3510;43.200;27.920;2023-01-31T07:17:55;100642.28;;;7.05;53.80
6942;BME280;3510;43.200;27.920;2023-01-31T07:20:24;100646.91;;;7.36;53.35
6942;BME280;3510;43.200;27.920;2023-01-31T07:22:54;100645.59;;;7.22;53.89
6942;BME280;3510;43.200;27.920;2023-01-31T07:25:21;100638.44;;;7.17;53.47
6942;BME280;3510;43.200;27.920;2023-01-31T07:27:48;100635.03;;;7.25;53.81
6942;BME280;3510;43.200;27.920;2023-01-31T07:30:18;100630.78;;;7.07;54.76
6942;BME280;3510;43.200;27.920;2023-01-31T07:32:45;100631.25;;;7.56;53.35
6942;BME280;3510;43.200;27.920;2023-01-31T07:35:12;100638.56;;;7.18;54.01
6942;BME280;3510;43.200;27.920;2023-01-31T07:37:38;100629.28;;;7.71;53.78
6942;BME280;3510;43.200;27.920;2023-01-31T07:40:08;100638.81;;;7.39;54.77
6942;BME280;3510;43.200;27.920;2023-01-31T07:42:35;100637.94;;;7.38;55.26
6942;BME280;3510;43.200;27.920;2023-01-31T07:45:02;100629.09;;;7.33;54.57
6942;BME280;3510;43.200;27.920;2023-01-31T07:50:12;100640.19;;;7.71;53.56
6942;BME280;3510;43.200;27.920;2023-01-31T07:52:38;100638.28;;;7.69;53.80
6942;BME280;3510;43.200;27.920;2023-01-31T07:55:06;100631.13;;;7.82;53.47
6942;BME280;3510;43.200;27.920;2023-01-31T07:57:32;100637.53;;;8.06;53.56
6942;BME280;3510;43.200;27.920;2023-01-31T07:59:59;100628.84;;;8.03;53.42
6942;BME280;3510;43.200;27.920;2023-01-31T08:05:01;100636.97;;;8.28;52.44
6942;BME280;3510;43.200;27.920;2023-01-31T08:07:30;100637.19;;;8.12;52.95
6942;BME280;3510;43.200;27.920;2023-01-31T08:09:58;100639.09;;;8.99;51.04
6942;BME280;3510;43.200;27.920;2023-01-31T08:12:25;100631.84;;;8.64;52.33
6942;BME280;3510;43.200;27.920;2023-01-31T08:14:52;100639.94;;;8.51;51.70
6942;BME280;3510;43.200;27.920;2023-01-31T08:17:19;100635.25;;;8.83;50.80
6942;BME280;3510;43.200;27.920;2023-01-31T08:19:45;100626.69;;;9.29;49.69
6942;BME280;3510;43.200;27.920;2023-01-31T08:22:12;100626.91;;;8.74;49.85
6942;BME280;3510;43.200;27.920;2023-01-31T08:24:40;100628.81;;;8.77;50.65
6942;BME280;3510;43.200;27.920;2023-01-31T08:27:07;100638.28;;;7.69;53.25
6942;BME280;3510;43.200;27.920;2023-01-31T08:29:34;100633.47;;;7.53;53.54
6942;BME280;3510;43.200;27.920;2023-01-31T08:32:03;100644.28;;;7.80;53.79
6942;BME280;3510;43.200;27.920;2023-01-31T08:34:32;100656.63;;;7.33;53.61
6942;BME280;3510;43.200;27.920;2023-01-31T08:37:02;100644.13;;;7.33;54.63
6942;BME280;3510;43.200;27.920;2023-01-31T08:39:44;100648.00;;;7.66;53.21
6942;BME280;3510;43.200;27.920;2023-01-31T08:42:12;100651.56;;;7.68;53.50
6942;BME280;3510;43.200;27.920;2023-01-31T08:44:39;100617.03;;;7.74;52.81
6942;BME280;3510;43.200;27.920;2023-01-31T08:47:08;100652.16;;;8.02;52.06
6942;BME280;3510;43.200;27.920;2023-01-31T08:49:35;100656.88;;;7.98;51.72
6942;BME280;3510;43.200;27.920;2023-01-31T08:52:03;100656.16;;;7.91;52.24
6942;BME280;3510;43.200;27.920;2023-01-31T08:54:30;100662.53;;;7.87;51.67
6942;BME280;3510;43.200;27.920;2023-01-31T08:56:59;100657.75;;;8.27;51.36
6942;BME280;3510;43.200;27.920;2023-01-31T08:59:25;100660.94;;;8.62;50.16
6942;BME280;3510;43.200;27.920;2023-01-31T09:02:07;100661.22;;;9.03;49.00
6942;BME280;3510;43.200;27.920;2023-01-31T09:04:35;100665.28;;;9.11;49.32
6942;BME280;3510;43.200;27.920;2023-01-31T09:07:02;100653.78;;;8.94;48.17
6942;BME280;3510;43.200;27.920;2023-01-31T09:09:29;100657.56;;;8.80;47.62
6942;BME280;3510;43.200;27.920;2023-01-31T09:11:57;100654.69;;;8.48;48.65
6942;BME280;3510;43.200;27.920;2023-01-31T09:14:32;100656.06;;;8.36;48.03
6942;BME280;3510;43.200;27.920;2023-01-31T09:17:00;100659.66;;;8.94;47.54
6942;BME280;3510;43.200;27.920;2023-01-31T09:19:27;100660.38;;;9.41;46.61
6942;BME280;3510;43.200;27.920;2023-01-31T09:21:55;100672.16;;;9.32;46.97
6942;BME280;3510;43.200;27.920;2023-01-31T09:24:23;100656.97;;;10.40;44.85
6942;BME280;3510;43.200;27.920;2023-01-31T09:26:52;100659.50;;;8.55;46.19
6942;BME280;3510;43.200;27.920;2023-01-31T09:29:20;100656.31;;;8.47;47.92
6942;BME280;3510;43.200;27.920;2023-01-31T09:31:52;100649.84;;;8.87;47.90
6942;BME280;3510;43.200;27.920;2023-01-31T09:37:08;100648.88;;;8.58;47.30
6942;BME280;3510;43.200;27.920;2023-01-31T09:39:48;100649.16;;;8.80;47.31
6942;BME280;3510;43.200;27.920;2023-01-31T09:42:17;100646.66;;;8.80;47.48
6942;BME280;3510;43.200;27.920;2023-01-31T09:45:00;100645.72;;;8.69;48.05
6942;BME280;3510;43.200;27.920;2023-01-31T11:03:42;100629.91;;;8.70;45.80
6942;BME280;3510;43.200;27.920;2023-01-31T11:06:11;100633.94;;;8.40;46.06
6942;BME280;3510;43.200;27.920;2023-01-31T11:25:26;100631.06;;;8.55;46.74
6942;BME280;3510;43.200;27.920;2023-01-31T11:27:56;100633.66;;;9.13;45.92
6942;BME280;3510;43.200;27.920;2023-01-31T11:30:27;100623.66;;;8.94;45.83
6942;BME280;3510;43.200;27.920;2023-01-31T11:32:59;100629.50;;;8.84;45.84
6942;BME280;3510;43.200;27.920;2023-01-31T11:35:29;100629.63;;;9.15;44.95
6942;BME280;3510;43.200;27.920;2023-01-31T11:37:57;100623.75;;;10.03;44.08
6942;BME280;3510;43.200;27.920;2023-01-31T11:40:29;100639.59;;;8.57;46.58
6942;BME280;3510;43.200;27.920;2023-01-31T11:42:57;100640.75;;;8.79;46.26
6942;BME280;3510;43.200;27.920;2023-01-31T11:45:26;100635.19;;;8.92;45.92
6942;BME280;3510;43.200;27.920;2023-01-31T11:47:55;100635.31;;;8.56;46.13
6942;BME280;3510;43.200;27.920;2023-01-31T11:50:25;100630.53;;;9.15;45.74
6942;BME280;3510;43.200;27.920;2023-01-31T11:52:58;100626.94;;;9.61;44.46
6942;BME280;3510;43.200;27.920;2023-01-31T11:55:34;100627.75;;;8.45;46.55
6942;BME280;3510;43.200;27.920;2023-01-31T12:00:53;100641.03;;;8.36;47.00
6942;BME280;3510;43.200;27.920;2023-01-31T12:06:03;100637.09;;;8.57;46.17
6942;BME280;3510;43.200;27.920;2023-01-31T12:08:40;100647.94;;;8.66;46.21
6942;BME280;3510;43.200;27.920;2023-01-31T12:19:30;100635.41;;;8.19;47.79
6942;BME280;3510;43.200;27.920;2023-01-31T12:22:20;100628.53;;;8.92;46.60
6942;BME280;3510;43.200;27.920;2023-01-31T12:25:18;100637.34;;;8.79;45.52
6942;BME280;3510;43.200;27.920;2023-01-31T12:27:56;100622.81;;;8.28;47.19
6942;BME280;3510;43.200;27.920;2023-01-31T12:30:49;100637.66;;;8.35;46.79
6942;BME280;3510;43.200;27.920;2023-01-31T12:46:23;100648.63;;;8.27;47.12
6942;BME280;3510;43.200;27.920;2023-01-31T13:17:32;100677.84;;;7.82;49.03
6942;BME280;3510;43.200;27.920;2023-01-31T13:20:04;100683.91;;;8.20;48.18
6942;BME280;3510;43.200;27.920;2023-01-31T13:22:35;100665.09;;;8.80;46.48
6942;BME280;3510;43.200;27.920;2023-01-31T13:25:10;100677.00;;;8.36;47.23
6942;BME280;3510;43.200;27.920;2023-01-31T13:27:41;100689.78;;;8.94;46.38
6942;BME280;3510;43.200;27.920;2023-01-31T13:30:13;100680.28;;;8.35;47.40
6942;BME280;3510;43.200;27.920;2023-01-31T13:33:02;100680.03;;;8.23;48.20
6942;BME280;3510;43.200;27.920;2023-01-31T13:35:36;100686.63;;;8.59;47.70
6942;BME280;3510;43.200;27.920;2023-01-31T13:38:06;100674.75;;;8.48;47.41
6942;BME280;3510;43.200;27.920;2023-01-31T13:43:10;100670.38;;;8.64;47.27
6942;BME280;3510;43.200;27.920;2023-01-31T13:45:50;100681.22;;;8.55;47.16
6942;BME280;3510;43.200;27.920;2023-01-31T13:48:35;100688.25;;;8.31;47.56
6942;BME280;3510;43.200;27.920;2023-01-31T13:51:05;100689.44;;;8.81;47.09
6942;BME280;3510;43.200;27.920;2023-01-31T13:53:41;100696.34;;;8.84;47.30
6942;BME280;3510;43.200;27.920;2023-01-31T13:56:11;100705.63;;;8.66;46.92
6942;BME280;3510;43.200;27.920;2023-01-31T13:58:39;100695.31;;;9.01;46.26
6942;BME280;3510;43.200;27.920;2023-01-31T14:01:10;100697.00;;;8.54;47.28
6942;BME280;3510;43.200;27.920;2023-01-31T14:06:32;100705.97;;;9.17;46.43
6942;BME280;3510;43.200;27.920;2023-01-31T14:09:22;100725.09;;;8.41;47.59
6942;BME280;3510;43.200;27.920;2023-01-31T14:11:49;100703.28;;;9.34;46.16
6942;BME280;3510;43.200;27.920;2023-01-31T14:14:17;100704.53;;;8.54;47.96
6942;BME280;3510;43.200;27.920;2023-01-31T14:16:46;100714.72;;;8.74;47.08
6942;BME280;3510;43.200;27.920;2023-01-31T14:22:15;100721.72;;;8.68;46.87
6942;BME280;3510;43.200;27.920;2023-01-31T14:27:38;100725.50;;;8.73;47.87
6942;BME280;3510;43.200;27.920;2023-01-31T14:30:08;100728.84;;;8.55;47.87
6942;BME280;3510;43.200;27.920;2023-01-31T14:32:37;100719.88;;;8.48;48.19
6942;BME280;3510;43.200;27.920;2023-01-31T14:35:07;100717.88;;;8.63;47.89
6942;BME280;3510;43.200;27.920;2023-01-31T14:37:47;100721.81;;;8.51;48.24
6942;BME280;3510;43.200;27.920;2023-01-31T14:40:21;100726.44;;;8.65;48.25
6942;BME280;3510;43.200;27.920;2023-01-31T14:43:06;100729.91;;;8.76;48.02
6942;BME280;3510;43.200;27.920;2023-01-31T14:45:48;100734.69;;;8.91;48.11
6942;BME280;3510;43.200;27.920;2023-01-31T14:48:22;100747.81;;;8.42;49.30
6942;BME280;3510;43.200;27.920;2023-01-31T14:51:05;100743.81;;;8.72;48.71
6942;BME280;3510;43.200;27.920;2023-01-31T14:53:37;100748.34;;;8.48;49.17
6942;BME280;3510;43.200;27.920;2023-01-31T14:56:15;100750.34;;;9.08;47.84
6942;BME280;3510;43.200;27.920;2023-01-31T14:59:15;100754.41;;;8.51;49.85
6942;BME280;3510;43.200;27.920;2023-01-31T15:01:47;100759.66;;;8.62;50.00
6942;BME280;3510;43.200;27.920;2023-01-31T15:06:53;100761.84;;;8.68;49.46
6942;BME280;3510;43.200;27.920;2023-01-31T15:09:51;100760.72;;;8.56;50.53
6942;BME280;3510;43.200;27.920;2023-01-31T15:12:52;100752.91;;;8.80;49.88
6942;BME280;3510;43.200;27.920;2023-01-31T15:15:22;100762.06;;;8.16;51.43
6942;BME280;3510;43.200;27.920;2023-01-31T15:17:51;100769.94;;;8.29;51.55
6942;BME280;3510;43.200;27.920;2023-01-31T15:20:20;100769.34;;;8.40;51.62
6942;BME280;3510;43.200;27.920;2023-01-31T15:22:51;100776.69;;;8.03;51.94
6942;BME280;3510;43.200;27.920;2023-01-31T15:25:24;100780.56;;;8.27;51.33
6942;BME280;3510;43.200;27.920;2023-01-31T15:27:54;100782.03;;;8.42;51.78
6942;BME280;3510;43.200;27.920;2023-01-31T15:30:22;100784.19;;;8.03;52.84
6942;BME280;3510;43.200;27.920;2023-01-31T15:32:50;100793.09;;;7.90;53.23
6942;BME280;3510;43.200;27.920;2023-01-31T15:35:20;100789.69;;;7.81;53.66
6942;BME280;3510;43.200;27.920;2023-01-31T15:37:52;100796.56;;;8.10;53.25
6942;BME280;3510;43.200;27.920;2023-01-31T15:40:22;100797.72;;;8.13;53.33
6942;BME280;3510;43.200;27.920;2023-01-31T15:45:38;100807.53;;;7.84;53.34
6942;BME280;3510;43.200;27.920;2023-01-31T15:48:07;100813.91;;;8.25;53.31
6942;BME280;3510;43.200;27.920;2023-01-31T15:50:48;100819.47;;;7.78;54.17
6942;BME280;3510;43.200;27.920;2023-01-31T15:58:26;100823.84;;;7.89;53.81
6942;BME280;3510;43.200;27.920;2023-01-31T16:09:06;100839.75;;;8.16;53.71
6942;BME280;3510;43.200;27.920;2023-01-31T16:19:48;100852.91;;;7.70;54.14
6942;BME280;3510;43.200;27.920;2023-01-31T16:22:25;100850.97;;;7.41;54.96
6942;BME280;3510;43.200;27.920;2023-01-31T16:24:58;100853.22;;;7.90;54.41
6942;BME280;3510;43.200;27.920;2023-01-31T16:27:25;100852.91;;;7.70;54.94
6942;BME280;3510;43.200;27.920;2023-01-31T16:29:56;100860.53;;;8.06;54.29
6942;BME280;3510;43.200;27.920;2023-01-31T16:32:24;100856.16;;;7.78;55.37
6942;BME280;3510;43.200;27.920;2023-01-31T16:34:53;100855.88;;;7.66;55.34
6942;BME280;3510;43.200;27.920;2023-01-31T16:37:27;100859.50;;;7.26;55.82
6942;BME280;3510;43.200;27.920;2023-01-31T16:39:58;100861.16;;;7.51;56.00
6942;BME280;3510;43.200;27.920;2023-01-31T16:42:25;100857.47;;;7.48;56.27
6942;BME280;3510;43.200;27.920;2023-01-31T16:44:53;100863.09;;;7.45;55.09
6942;BME280;3510;43.200;27.920;2023-01-31T16:47:28;100879.88;;;7.46;54.82
6942;BME280;3510;43.200;27.920;2023-01-31T16:50:11;100866.19;;;7.69;55.10
6942;BME280;3510;43.200;27.920;2023-01-31T16:52:49;100875.59;;;7.97;54.82
6942;BME280;3510;43.200;27.920;2023-01-31T16:55:18;100871.47;;;7.81;54.47
6942;BME280;3510;43.200;27.920;2023-01-31T16:57:46;100877.22;;;7.62;54.47
6942;BME280;3510;43.200;27.920;2023-01-31T17:00:31;100871.19;;;7.69;54.96
6942;BME280;3510;43.200;27.920;2023-01-31T17:03:00;100868.19;;;8.16;53.97
6942;BME280;3510;43.200;27.920;2023-01-31T17:05:27;100875.59;;;7.89;54.41
6942;BME280;3510;43.200;27.920;2023-01-31T17:07:56;100887.22;;;7.36;55.55
6942;BME280;3510;43.200;27.920;2023-01-31T17:10:26;100878.25;;;7.38;55.36
6942;BME280;3510;43.200;27.920;2023-01-31T17:12:54;100864.41;;;7.68;55.04
6942;BME280;3510;43.200;27.920;2023-01-31T17:15:23;100866.47;;;7.72;54.31
6942;BME280;3510;43.200;27.920;2023-01-31T17:17:50;100892.72;;;7.08;56.36
6942;BME280;3510;43.200;27.920;2023-01-31T17:20:18;100874.38;;;7.33;56.19
6942;BME280;3510;43.200;27.920;2023-01-31T17:22:45;100871.91;;;7.50;55.64
6942;BME280;3510;43.200;27.920;2023-01-31T17:25:13;100881.91;;;8.11;54.04
6942;BME280;3510;43.200;27.920;2023-01-31T17:27:46;100885.63;;;7.80;54.93
6942;BME280;3510;43.200;27.920;2023-01-31T17:30:14;100896.97;;;7.85;54.61
6942;BME280;3510;43.200;27.920;2023-01-31T17:32:42;100886.63;;;7.47;55.50
6942;BME280;3510;43.200;27.920;2023-01-31T17:35:13;100896.41;;;7.02;57.34
6942;BME280;3510;43.200;27.920;2023-01-31T17:37:42;100897.22;;;7.27;56.06
6942;BME280;3510;43.200;27.920;2023-01-31T17:40:09;100901.59;;;7.13;57.32
6942;BME280;3510;43.200;27.920;2023-01-31T17:42:37;100887.69;;;7.75;56.18
6942;BME280;3510;43.200;27.920;2023-01-31T17:45:11;100893.34;;;7.14;57.37